sensor_id;sensor_type;location;lat;lon;timestamp;temperature;humidity
13375;DHT22;6756;51.354;15.754;2023-08-07T00:00:20;13.10;99.90
13375;DHT22;6756;51.354;15.754;2023-08-07T00:04:21;13.10;99.90
13375;DHT22;6756;51.354;15.754;2023-08-07T00:08:22;13.20;99.90
13375;DHT22;6756;51.354;15.754;2023-08-07T00:12:23;13.20;99.90
13375;DHT22;6756;51.354;15.754;2023-08-07T00:16:23;13.20;99.90
13375;DHT22;6756;51.354;15.754;2023-08-07T00:20:24;13.20;99.90
13375;DHT22;6756;51.354;15.754;2023-08-07T00:24:25;13.20;99.90
13375;DHT22;6756;51.354;15.754;2023-08-07T00:28:26;13.20;99.90
13375;DHT22;6756;51.354;15.754;2023-08-07T00:32:26;13.20;99.90
13375;DHT22;6756;51.354;15.754;2023-08-07T00:36:27;13.30;99.90
13375;DHT22;6756;51.354;15.754;2023-08-07T00:40:40;13.30;99.90
13375;DHT22;6756;51.354;15.754;2023-08-07T00:44:41;13.40;99.90
13375;DHT22;6756;51.354;15.754;2023-08-07T00:48:42;13.50;99.90
13375;DHT22;6756;51.354;15.754;2023-08-07T00:52:43;13.60;99.90
13375;DHT22;6756;51.354;15.754;2023-08-07T00:56:44;13.60;99.90
13375;DHT22;6756;51.354;15.754;2023-08-07T01:00:44;13.60;99.90
13375;DHT22;6756;51.354;15.754;2023-08-07T01:04:46;13.70;99.90
13375;DHT22;6756;51.354;15.754;2023-08-07T01:08:47;13.70;99.90
13375;DHT22;6756;51.354;15.754;2023-08-07T01:12:54;13.70;99.90
13375;DHT22;6756;51.354;15.754;2023-08-07T01:17:15;13.80;99.90
13375;DHT22;6756;51.354;15.754;2023-08-07T01:21:19;13.80;99.90
13375;DHT22;6756;51.354;15.754;2023-08-07T01:25:20;13.80;99.90
13375;DHT22;6756;51.354;15.754;2023-08-07T01:29:26;13.80;99.90
13375;DHT22;6756;51.354;15.754;2023-08-07T01:33:35;13.80;99.90
13375;DHT22;6756;51.354;15.754;2023-08-07T01:37:41;13.90;99.90
13375;DHT22;6756;51.354;15.754;2023-08-07T01:41:42;13.90;99.90
13375;DHT22;6756;51.354;15.754;2023-08-07T01:45:42;13.90;99.90
13375;DHT22;6756;51.354;15.754;2023-08-07T01:49:43;13.90;99.90
13375;DHT22;6756;51.354;15.754;2023-08-07T01:53:44;13.90;99.90
13375;DHT22;6756;51.354;15.754;2023-08-07T01:57:47;14.00;99.90
13375;DHT22;6756;51.354;15.754;2023-08-07T02:01:48;14.00;99.90
13375;DHT22;6756;51.354;15.754;2023-08-07T02:05:49;14.00;99.90
13375;DHT22;6756;51.354;15.754;2023-08-07T02:09:50;13.90;99.90
13375;DHT22;6756;51.354;15.754;2023-08-07T02:13:50;13.90;99.90
13375;DHT22;6756;51.354;15.754;2023-08-07T02:17:51;13.90;99.90
13375;DHT22;6756;51.354;15.754;2023-08-07T02:21:52;13.90;99.90
13375;DHT22;6756;51.354;15.754;2023-08-07T02:25:53;13.90;99.90
13375;DHT22;6756;51.354;15.754;2023-08-07T02:29:54;13.90;99.90
13375;DHT22;6756;51.354;15.754;2023-08-07T02:33:55;13.90;99.90
13375;DHT22;6756;51.354;15.754;2023-08-07T02:37:55;13.80;99.90
13375;DHT22;6756;51.354;15.754;2023-08-07T02:41:56;13.70;99.90
13375;DHT22;6756;51.354;15.754;2023-08-07T02:45:57;13.70;99.90
13375;DHT22;6756;51.354;15.754;2023-08-07T02:49:57;13.60;99.90
13375;DHT22;6756;51.354;15.754;2023-08-07T02:53:59;13.50;99.90
13375;DHT22;6756;51.354;15.754;2023-08-07T02:58:00;13.50;99.90
13375;DHT22;6756;51.354;15.754;2023-08-07T03:02:01;13.50;99.90
13375;DHT22;6756;51.354;15.754;2023-08-07T03:06:01;13.50;99.90
13375;DHT22;6756;51.354;15.754;2023-08-07T03:10:02;13.50;99.90
13375;DHT22;6756;51.354;15.754;2023-08-07T03:14:04;13.40;99.90
13375;DHT22;6756;51.354;15.754;2023-08-07T03:18:05;13.40;99.90
13375;DHT22;6756;51.354;15.754;2023-08-07T03:22:06;13.30;99.90
13375;DHT22;6756;51.354;15.754;2023-08-07T03:26:10;13.30;99.90
13375;DHT22;6756;51.354;15.754;2023-08-07T03:30:11;13.30;99.90
13375;DHT22;6756;51.354;15.754;2023-08-07T03:34:12;13.30;99.90
13375;DHT22;6756;51.354;15.754;2023-08-07T03:38:12;13.30;99.90
13375;DHT22;6756;51.354;15.754;2023-08-07T03:42:14;13.30;99.90
13375;DHT22;6756;51.354;15.754;2023-08-07T03:46:15;13.30;99.90
13375;DHT22;6756;51.354;15.754;2023-08-07T03:50:16;13.30;99.90
13375;DHT22;6756;51.354;15.754;2023-08-07T03:54:17;13.30;99.90
13375;DHT22;6756;51.354;15.754;2023-08-07T03:58:18;13.30;99.90
13375;DHT22;6756;51.354;15.754;2023-08-07T04:02:19;13.30;99.90
13375;DHT22;6756;51.354;15.754;2023-08-07T04:06:20;13.40;99.90
13375;DHT22;6756;51.354;15.754;2023-08-07T04:10:21;13.40;99.90
13375;DHT22;6756;51.354;15.754;2023-08-07T04:14:22;13.50;99.90
13375;DHT22;6756;51.354;15.754;2023-08-07T04:18:23;13.50;99.90
13375;DHT22;6756;51.354;15.754;2023-08-07T04:22:24;13.60;99.90
13375;DHT22;6756;51.354;15.754;2023-08-07T04:26:25;13.60;99.90
13375;DHT22;6756;51.354;15.754;2023-08-07T04:30:25;13.60;99.90
13375;DHT22;6756;51.354;15.754;2023-08-07T04:34:26;13.70;99.90
13375;DHT22;6756;51.354;15.754;2023-08-07T04:38:27;13.90;99.90
13375;DHT22;6756;51.354;15.754;2023-08-07T04:42:27;13.90;99.90
13375;DHT22;6756;51.354;15.754;2023-08-07T04:46:28;14.00;99.90
13375;DHT22;6756;51.354;15.754;2023-08-07T04:50:29;14.10;99.90
13375;DHT22;6756;51.354;15.754;2023-08-07T04:54:30;14.10;99.90
13375;DHT22;6756;51.354;15.754;2023-08-07T04:58:31;14.30;99.90
13375;DHT22;6756;51.354;15.754;2023-08-07T05:02:32;14.30;99.90
13375;DHT22;6756;51.354;15.754;2023-08-07T05:06:32;14.40;99.90
13375;DHT22;6756;51.354;15.754;2023-08-07T05:10:33;14.40;99.90
13375;DHT22;6756;51.354;15.754;2023-08-07T05:14:34;14.50;99.90
13375;DHT22;6756;51.354;15.754;2023-08-07T05:18:35;14.60;99.90
13375;DHT22;6756;51.354;15.754;2023-08-07T05:22:35;14.60;99.90
13375;DHT22;6756;51.354;15.754;2023-08-07T05:26:36;14.60;99.90
13375;DHT22;6756;51.354;15.754;2023-08-07T05:30:37;14.70;99.90
13375;DHT22;6756;51.354;15.754;2023-08-07T05:34:38;14.80;99.90
13375;DHT22;6756;51.354;15.754;2023-08-07T05:38:39;14.90;99.90
13375;DHT22;6756;51.354;15.754;2023-08-07T05:42:40;15.20;99.90
13375;DHT22;6756;51.354;15.754;2023-08-07T05:46:42;15.60;99.90
13375;DHT22;6756;51.354;15.754;2023-08-07T05:50:42;15.80;99.90
13375;DHT22;6756;51.354;15.754;2023-08-07T05:54:43;16.00;99.90
13375;DHT22;6756;51.354;15.754;2023-08-07T05:58:44;16.30;99.90
13375;DHT22;6756;51.354;15.754;2023-08-07T06:02:45;16.70;99.90
13375;DHT22;6756;51.354;15.754;2023-08-07T06:06:46;17.10;99.90
13375;DHT22;6756;51.354;15.754;2023-08-07T06:10:47;16.80;99.90
13375;DHT22;6756;51.354;15.754;2023-08-07T06:14:48;16.40;99.90
13375;DHT22;6756;51.354;15.754;2023-08-07T06:18:48;16.30;99.90
13375;DHT22;6756;51.354;15.754;2023-08-07T06:22:49;16.30;99.90
13375;DHT22;6756;51.354;15.754;2023-08-07T06:26:50;16.30;99.90
13375;DHT22;6756;51.354;15.754;2023-08-07T06:30:51;16.30;99.90
13375;DHT22;6756;51.354;15.754;2023-08-07T06:34:52;16.30;99.90
13375;DHT22;6756;51.354;15.754;2023-08-07T06:38:53;16.30;99.90
13375;DHT22;6756;51.354;15.754;2023-08-07T06:42:53;16.50;99.90
13375;DHT22;6756;51.354;15.754;2023-08-07T06:46:57;16.70;99.90
13375;DHT22;6756;51.354;15.754;2023-08-07T06:50:58;16.70;99.90
13375;DHT22;6756;51.354;15.754;2023-08-07T06:55:01;16.60;99.90
13375;DHT22;6756;51.354;15.754;2023-08-07T06:59:02;16.50;99.90
13375;DHT22;6756;51.354;15.754;2023-08-07T07:03:03;16.50;99.90
13375;DHT22;6756;51.354;15.754;2023-08-07T07:07:04;16.50;99.90
13375;DHT22;6756;51.354;15.754;2023-08-07T07:11:05;16.60;99.90
13375;DHT22;6756;51.354;15.754;2023-08-07T07:15:06;16.80;99.90
13375;DHT22;6756;51.354;15.754;2023-08-07T07:19:07;17.10;99.90
13375;DHT22;6756;51.354;15.754;2023-08-07T07:23:09;17.30;99.90
13375;DHT22;6756;51.354;15.754;2023-08-07T07:27:13;17.40;99.90
13375;DHT22;6756;51.354;15.754;2023-08-07T07:31:14;17.30;99.90
13375;DHT22;6756;51.354;15.754;2023-08-07T07:35:15;17.20;99.90
13375;DHT22;6756;51.354;15.754;2023-08-07T07:39:16;17.00;99.90
13375;DHT22;6756;51.354;15.754;2023-08-07T07:43:16;16.80;99.90
13375;DHT22;6756;51.354;15.754;2023-08-07T07:47:17;17.00;99.90
13375;DHT22;6756;51.354;15.754;2023-08-07T07:51:18;17.30;99.90
13375;DHT22;6756;51.354;15.754;2023-08-07T07:55:19;17.50;99.90
13375;DHT22;6756;51.354;15.754;2023-08-07T07:59:20;17.50;99.90
13375;DHT22;6756;51.354;15.754;2023-08-07T08:03:21;17.10;99.90
13375;DHT22;6756;51.354;15.754;2023-08-07T08:07:22;17.30;99.90
13375;DHT22;6756;51.354;15.754;2023-08-07T08:11:23;17.60;99.90
13375;DHT22;6756;51.354;15.754;2023-08-07T08:15:24;17.80;99.90
13375;DHT22;6756;51.354;15.754;2023-08-07T08:19:25;17.90;99.90
13375;DHT22;6756;51.354;15.754;2023-08-07T08:23:26;17.90;99.90
13375;DHT22;6756;51.354;15.754;2023-08-07T08:27:26;18.10;46.90
13375;DHT22;6756;51.354;15.754;2023-08-07T08:31:27;18.60;59.70
13375;DHT22;6756;51.354;15.754;2023-08-07T08:35:28;18.70;42.50
13375;DHT22;6756;51.354;15.754;2023-08-07T08:39:29;18.80;10.60
13375;DHT22;6756;51.354;15.754;2023-08-07T08:43:34;18.60;21.50
13375;DHT22;6756;51.354;15.754;2023-08-07T08:47:36;18.50;22.80
13375;DHT22;6756;51.354;15.754;2023-08-07T08:51:37;18.60;10.50
13375;DHT22;6756;51.354;15.754;2023-08-07T08:55:39;19.00;1.00
13375;DHT22;6756;51.354;15.754;2023-08-07T08:59:43;18.90;1.00
13375;DHT22;6756;51.354;15.754;2023-08-07T09:03:45;18.90;1.00
13375;DHT22;6756;51.354;15.754;2023-08-07T09:07:47;19.10;1.00
13375;DHT22;6756;51.354;15.754;2023-08-07T09:11:50;19.30;1.00
13375;DHT22;6756;51.354;15.754;2023-08-07T09:15:52;19.60;1.00
13375;DHT22;6756;51.354;15.754;2023-08-07T09:19:53;19.70;1.00
13375;DHT22;6756;51.354;15.754;2023-08-07T09:23:54;19.20;1.00
13375;DHT22;6756;51.354;15.754;2023-08-07T09:27:55;18.50;1.00
13375;DHT22;6756;51.354;15.754;2023-08-07T09:31:57;18.80;1.00
13375;DHT22;6756;51.354;15.754;2023-08-07T09:35:59;19.00;1.00
13375;DHT22;6756;51.354;15.754;2023-08-07T09:40:01;19.20;1.00
13375;DHT22;6756;51.354;15.754;2023-08-07T09:44:07;19.30;1.00
13375;DHT22;6756;51.354;15.754;2023-08-07T09:48:14;19.20;1.00
13375;DHT22;6756;51.354;15.754;2023-08-07T09:52:15;19.40;1.00
13375;DHT22;6756;51.354;15.754;2023-08-07T09:56:17;19.90;1.00
13375;DHT22;6756;51.354;15.754;2023-08-07T10:00:21;20.20;1.00
13375;DHT22;6756;51.354;15.754;2023-08-07T10:04:22;20.20;1.00
13375;DHT22;6756;51.354;15.754;2023-08-07T10:08:23;20.20;1.00
13375;DHT22;6756;51.354;15.754;2023-08-07T10:12:26;20.10;1.00
13375;DHT22;6756;51.354;15.754;2023-08-07T10:16:28;19.90;1.00
13375;DHT22;6756;51.354;15.754;2023-08-07T10:20:29;19.60;1.00
13375;DHT22;6756;51.354;15.754;2023-08-07T10:24:31;19.70;1.00
13375;DHT22;6756;51.354;15.754;2023-08-07T10:28:33;20.20;1.00
13375;DHT22;6756;51.354;15.754;2023-08-07T10:32:38;19.90;1.00
13375;DHT22;6756;51.354;15.754;2023-08-07T10:36:40;19.10;1.00
13375;DHT22;6756;51.354;15.754;2023-08-07T10:41:01;18.60;1.00
13375;DHT22;6756;51.354;15.754;2023-08-07T10:45:02;18.10;1.00
13375;DHT22;6756;51.354;15.754;2023-08-07T10:49:05;17.70;64.20
13375;DHT22;6756;51.354;15.754;2023-08-07T10:53:06;17.40;99.90
13375;DHT22;6756;51.354;15.754;2023-08-07T10:57:10;16.70;99.90
13375;DHT22;6756;51.354;15.754;2023-08-07T11:05:27;16.20;99.90
13375;DHT22;6756;51.354;15.754;2023-08-07T11:09:28;16.30;99.90
13375;DHT22;6756;51.354;15.754;2023-08-07T11:13:29;16.50;99.90
13375;DHT22;6756;51.354;15.754;2023-08-07T11:17:30;16.80;99.90
13375;DHT22;6756;51.354;15.754;2023-08-07T11:21:32;17.10;99.90
13375;DHT22;6756;51.354;15.754;2023-08-07T11:25:33;17.10;1.00
13375;DHT22;6756;51.354;15.754;2023-08-07T11:29:36;17.40;1.00
13375;DHT22;6756;51.354;15.754;2023-08-07T11:33:37;17.60;1.00
13375;DHT22;6756;51.354;15.754;2023-08-07T11:37:48;17.70;99.90
13375;DHT22;6756;51.354;15.754;2023-08-07T11:46:47;18.00;99.90
13375;DHT22;6756;51.354;15.754;2023-08-07T11:50:48;17.90;99.90
13375;DHT22;6756;51.354;15.754;2023-08-07T11:54:49;17.80;99.90
13375;DHT22;6756;51.354;15.754;2023-08-07T11:58:51;17.60;1.00
13375;DHT22;6756;51.354;15.754;2023-08-07T12:02:53;18.00;1.00
13375;DHT22;6756;51.354;15.754;2023-08-07T12:06:55;18.50;1.00
13375;DHT22;6756;51.354;15.754;2023-08-07T12:10:56;19.10;99.90
13375;DHT22;6756;51.354;15.754;2023-08-07T12:14:57;19.20;99.90
13375;DHT22;6756;51.354;15.754;2023-08-07T12:18:58;19.70;99.90
13375;DHT22;6756;51.354;15.754;2023-08-07T12:22:59;20.30;99.90
13375;DHT22;6756;51.354;15.754;2023-08-07T12:27:00;20.50;99.90
13375;DHT22;6756;51.354;15.754;2023-08-07T12:31:01;21.10;99.90
13375;DHT22;6756;51.354;15.754;2023-08-07T12:35:02;21.30;31.60
13375;DHT22;6756;51.354;15.754;2023-08-07T12:39:03;21.50;1.00
13375;DHT22;6756;51.354;15.754;2023-08-07T12:43:04;21.50;1.00
13375;DHT22;6756;51.354;15.754;2023-08-07T12:47:06;21.10;1.00
13375;DHT22;6756;51.354;15.754;2023-08-07T12:51:07;20.00;1.00
13375;DHT22;6756;51.354;15.754;2023-08-07T12:55:08;19.40;32.50
13375;DHT22;6756;51.354;15.754;2023-08-07T12:59:09;19.20;99.90
13375;DHT22;6756;51.354;15.754;2023-08-07T13:03:10;19.20;99.90
13375;DHT22;6756;51.354;15.754;2023-08-07T13:07:11;19.40;99.90
13375;DHT22;6756;51.354;15.754;2023-08-07T13:11:12;19.90;92.30
13375;DHT22;6756;51.354;15.754;2023-08-07T13:15:14;20.00;53.30
13375;DHT22;6756;51.354;15.754;2023-08-07T13:19:15;20.30;24.00
13375;DHT22;6756;51.354;15.754;2023-08-07T13:23:16;20.50;16.30
13375;DHT22;6756;51.354;15.754;2023-08-07T13:27:16;20.90;1.00
13375;DHT22;6756;51.354;15.754;2023-08-07T13:31:17;20.70;1.00
13375;DHT22;6756;51.354;15.754;2023-08-07T13:35:18;20.30;1.00
13375;DHT22;6756;51.354;15.754;2023-08-07T13:39:19;20.10;1.00
13375;DHT22;6756;51.354;15.754;2023-08-07T13:43:19;20.40;1.00
13375;DHT22;6756;51.354;15.754;2023-08-07T13:47:20;21.10;1.00
13375;DHT22;6756;51.354;15.754;2023-08-07T13:51:21;20.90;1.00
13375;DHT22;6756;51.354;15.754;2023-08-07T13:55:22;21.00;1.00
13375;DHT22;6756;51.354;15.754;2023-08-07T13:59:22;21.10;1.00
13375;DHT22;6756;51.354;15.754;2023-08-07T14:03:26;20.90;1.00
13375;DHT22;6756;51.354;15.754;2023-08-07T14:07:27;20.50;1.00
13375;DHT22;6756;51.354;15.754;2023-08-07T14:11:28;20.30;1.00
13375;DHT22;6756;51.354;15.754;2023-08-07T14:15:31;20.60;1.00
13375;DHT22;6756;51.354;15.754;2023-08-07T14:19:32;20.90;1.00
13375;DHT22;6756;51.354;15.754;2023-08-07T14:23:33;20.90;1.00
13375;DHT22;6756;51.354;15.754;2023-08-07T14:27:33;21.20;1.00
13375;DHT22;6756;51.354;15.754;2023-08-07T14:31:34;21.00;1.00
13375;DHT22;6756;51.354;15.754;2023-08-07T14:35:35;20.50;1.00
13375;DHT22;6756;51.354;15.754;2023-08-07T14:39:36;20.40;1.00
13375;DHT22;6756;51.354;15.754;2023-08-07T14:43:37;20.20;1.00
13375;DHT22;6756;51.354;15.754;2023-08-07T14:47:37;20.10;1.00
13375;DHT22;6756;51.354;15.754;2023-08-07T14:51:38;20.00;1.00
13375;DHT22;6756;51.354;15.754;2023-08-07T14:55:39;20.00;1.00
13375;DHT22;6756;51.354;15.754;2023-08-07T14:59:40;20.10;1.00
13375;DHT22;6756;51.354;15.754;2023-08-07T15:03:40;20.00;1.00
13375;DHT22;6756;51.354;15.754;2023-08-07T15:07:41;20.00;1.00
13375;DHT22;6756;51.354;15.754;2023-08-07T15:11:42;19.60;1.00
13375;DHT22;6756;51.354;15.754;2023-08-07T15:15:44;19.00;1.00
13375;DHT22;6756;51.354;15.754;2023-08-07T15:19:45;18.00;18.90
13375;DHT22;6756;51.354;15.754;2023-08-07T15:23:46;17.20;99.90
13375;DHT22;6756;51.354;15.754;2023-08-07T15:27:46;16.80;1.00
13375;DHT22;6756;51.354;15.754;2023-08-07T15:31:47;16.70;1.00
13375;DHT22;6756;51.354;15.754;2023-08-07T15:35:48;16.80;99.90
13375;DHT22;6756;51.354;15.754;2023-08-07T15:39:51;17.30;46.10
13375;DHT22;6756;51.354;15.754;2023-08-07T15:43:52;17.70;1.00
13375;DHT22;6756;51.354;15.754;2023-08-07T15:47:53;18.10;99.90
13375;DHT22;6756;51.354;15.754;2023-08-07T15:51:54;18.30;99.90
13375;DHT22;6756;51.354;15.754;2023-08-07T15:55:54;18.40;99.90
13375;DHT22;6756;51.354;15.754;2023-08-07T15:59:55;18.40;99.90
13375;DHT22;6756;51.354;15.754;2023-08-07T16:03:56;18.60;99.90
13375;DHT22;6756;51.354;15.754;2023-08-07T16:07:59;18.70;99.90
13375;DHT22;6756;51.354;15.754;2023-08-07T16:12:00;18.70;99.90
13375;DHT22;6756;51.354;15.754;2023-08-07T16:16:00;18.70;99.90
13375;DHT22;6756;51.354;15.754;2023-08-07T16:20:01;18.60;99.90
13375;DHT22;6756;51.354;15.754;2023-08-07T16:24:02;18.70;99.90
13375;DHT22;6756;51.354;15.754;2023-08-07T16:28:04;18.60;99.90
13375;DHT22;6756;51.354;15.754;2023-08-07T16:32:06;18.50;99.90
13375;DHT22;6756;51.354;15.754;2023-08-07T16:36:09;18.50;99.90
13375;DHT22;6756;51.354;15.754;2023-08-07T16:40:11;18.30;99.90
13375;DHT22;6756;51.354;15.754;2023-08-07T16:44:12;17.90;99.90
13375;DHT22;6756;51.354;15.754;2023-08-07T16:48:13;17.60;99.90
13375;DHT22;6756;51.354;15.754;2023-08-07T16:52:13;17.50;99.90
13375;DHT22;6756;51.354;15.754;2023-08-07T16:56:14;17.70;99.90
13375;DHT22;6756;51.354;15.754;2023-08-07T17:00:15;17.90;99.90
13375;DHT22;6756;51.354;15.754;2023-08-07T17:04:16;18.10;99.90
13375;DHT22;6756;51.354;15.754;2023-08-07T17:08:17;18.40;99.90
13375;DHT22;6756;51.354;15.754;2023-08-07T17:12:18;18.30;99.90
13375;DHT22;6756;51.354;15.754;2023-08-07T17:16:19;18.10;99.90
13375;DHT22;6756;51.354;15.754;2023-08-07T17:20:20;17.90;99.90
13375;DHT22;6756;51.354;15.754;2023-08-07T17:24:20;17.70;99.90
13375;DHT22;6756;51.354;15.754;2023-08-07T17:28:21;17.50;99.90
13375;DHT22;6756;51.354;15.754;2023-08-07T17:32:22;17.40;99.90
13375;DHT22;6756;51.354;15.754;2023-08-07T17:36:23;17.30;99.90
13375;DHT22;6756;51.354;15.754;2023-08-07T17:40:24;16.90;99.90
13375;DHT22;6756;51.354;15.754;2023-08-07T17:44:25;16.80;99.90
13375;DHT22;6756;51.354;15.754;2023-08-07T17:48:25;16.60;99.90
13375;DHT22;6756;51.354;15.754;2023-08-07T17:52:27;16.40;99.90
13375;DHT22;6756;51.354;15.754;2023-08-07T17:56:30;16.30;99.90
13375;DHT22;6756;51.354;15.754;2023-08-07T18:00:33;16.20;99.90
13375;DHT22;6756;51.354;15.754;2023-08-07T18:04:35;16.10;99.90
13375;DHT22;6756;51.354;15.754;2023-08-07T18:08:36;16.30;99.90
13375;DHT22;6756;51.354;15.754;2023-08-07T18:12:37;16.20;99.90
13375;DHT22;6756;51.354;15.754;2023-08-07T18:16:38;16.40;99.90
13375;DHT22;6756;51.354;15.754;2023-08-07T18:20:39;16.40;99.90
13375;DHT22;6756;51.354;15.754;2023-08-07T18:24:40;16.20;99.90
13375;DHT22;6756;51.354;15.754;2023-08-07T18:28:40;16.00;99.90
13375;DHT22;6756;51.354;15.754;2023-08-07T18:32:41;15.80;1.00
13375;DHT22;6756;51.354;15.754;2023-08-07T18:36:42;15.60;1.00
13375;DHT22;6756;51.354;15.754;2023-08-07T18:40:43;15.50;1.00
13375;DHT22;6756;51.354;15.754;2023-08-07T18:44:44;15.30;1.00
13375;DHT22;6756;51.354;15.754;2023-08-07T18:48:45;15.10;51.40
13375;DHT22;6756;51.354;15.754;2023-08-07T18:52:46;15.00;99.90
13375;DHT22;6756;51.354;15.754;2023-08-07T18:56:47;14.90;99.90
13375;DHT22;6756;51.354;15.754;2023-08-07T19:00:49;14.70;99.90
13375;DHT22;6756;51.354;15.754;2023-08-07T19:04:49;14.60;99.90
13375;DHT22;6756;51.354;15.754;2023-08-07T19:08:50;14.60;99.90
13375;DHT22;6756;51.354;15.754;2023-08-07T19:12:51;14.40;99.90
13375;DHT22;6756;51.354;15.754;2023-08-07T19:16:52;14.20;99.90
13375;DHT22;6756;51.354;15.754;2023-08-07T19:20:53;14.20;99.90
13375;DHT22;6756;51.354;15.754;2023-08-07T19:24:54;14.10;99.90
13375;DHT22;6756;51.354;15.754;2023-08-07T19:28:57;14.00;99.90
13375;DHT22;6756;51.354;15.754;2023-08-07T19:32:58;13.90;99.90
13375;DHT22;6756;51.354;15.754;2023-08-07T19:36:59;13.90;99.90
13375;DHT22;6756;51.354;15.754;2023-08-07T19:41:00;13.90;99.90
13375;DHT22;6756;51.354;15.754;2023-08-07T19:45:01;13.80;99.90
13375;DHT22;6756;51.354;15.754;2023-08-07T19:49:02;13.80;99.90
13375;DHT22;6756;51.354;15.754;2023-08-07T19:53:03;13.70;1.00
13375;DHT22;6756;51.354;15.754;2023-08-07T19:57:04;13.70;1.00
13375;DHT22;6756;51.354;15.754;2023-08-07T20:01:04;13.60;1.00
13375;DHT22;6756;51.354;15.754;2023-08-07T20:05:06;13.50;1.00
13375;DHT22;6756;51.354;15.754;2023-08-07T20:09:07;13.50;1.00
13375;DHT22;6756;51.354;15.754;2023-08-07T20:13:07;13.50;1.00
13375;DHT22;6756;51.354;15.754;2023-08-07T20:17:08;13.50;99.90
13375;DHT22;6756;51.354;15.754;2023-08-07T20:21:09;13.50;99.90
13375;DHT22;6756;51.354;15.754;2023-08-07T20:25:10;13.40;99.90
13375;DHT22;6756;51.354;15.754;2023-08-07T20:29:11;13.40;99.90
13375;DHT22;6756;51.354;15.754;2023-08-07T20:33:11;13.30;99.90
13375;DHT22;6756;51.354;15.754;2023-08-07T20:37:12;13.30;99.90
13375;DHT22;6756;51.354;15.754;2023-08-07T20:41:13;13.20;99.90
13375;DHT22;6756;51.354;15.754;2023-08-07T20:45:14;13.20;99.90
13375;DHT22;6756;51.354;15.754;2023-08-07T20:49:15;13.10;99.90
13375;DHT22;6756;51.354;15.754;2023-08-07T20:53:15;13.20;99.90
13375;DHT22;6756;51.354;15.754;2023-08-07T20:57:16;13.20;99.90
13375;DHT22;6756;51.354;15.754;2023-08-07T21:01:17;13.20;99.90
13375;DHT22;6756;51.354;15.754;2023-08-07T21:05:18;13.10;99.90
13375;DHT22;6756;51.354;15.754;2023-08-07T21:09:19;13.10;99.90
13375;DHT22;6756;51.354;15.754;2023-08-07T21:13:23;13.10;99.90
13375;DHT22;6756;51.354;15.754;2023-08-07T21:17:23;13.00;99.90
13375;DHT22;6756;51.354;15.754;2023-08-07T21:21:24;12.90;99.90
13375;DHT22;6756;51.354;15.754;2023-08-07T21:25:25;12.80;1.00
13375;DHT22;6756;51.354;15.754;2023-08-07T21:29:26;12.70;1.00
13375;DHT22;6756;51.354;15.754;2023-08-07T21:33:27;12.60;1.00
13375;DHT22;6756;51.354;15.754;2023-08-07T21:37:32;12.60;1.00
13375;DHT22;6756;51.354;15.754;2023-08-07T21:41:33;12.60;1.00
13375;DHT22;6756;51.354;15.754;2023-08-07T21:45:34;12.60;1.00
13375;DHT22;6756;51.354;15.754;2023-08-07T21:49:34;12.60;1.00
13375;DHT22;6756;51.354;15.754;2023-08-07T21:53:35;12.50;1.00
13375;DHT22;6756;51.354;15.754;2023-08-07T21:57:36;12.50;1.00
13375;DHT22;6756;51.354;15.754;2023-08-07T22:01:36;12.50;1.00
13375;DHT22;6756;51.354;15.754;2023-08-07T22:05:37;12.50;1.00
13375;DHT22;6756;51.354;15.754;2023-08-07T22:09:38;12.40;1.00
13375;DHT22;6756;51.354;15.754;2023-08-07T22:13:38;12.30;1.00
13375;DHT22;6756;51.354;15.754;2023-08-07T22:17:39;12.20;90.90
13375;DHT22;6756;51.354;15.754;2023-08-07T22:21:40;12.10;99.90
13375;DHT22;6756;51.354;15.754;2023-08-07T22:25:41;12.10;99.90
13375;DHT22;6756;51.354;15.754;2023-08-07T22:29:42;12.10;99.90
13375;DHT22;6756;51.354;15.754;2023-08-07T22:33:44;12.20;99.90
13375;DHT22;6756;51.354;15.754;2023-08-07T22:37:45;12.20;26.60
13375;DHT22;6756;51.354;15.754;2023-08-07T22:41:46;12.20;26.00
13375;DHT22;6756;51.354;15.754;2023-08-07T22:45:49;12.20;1.00
13375;DHT22;6756;51.354;15.754;2023-08-07T22:49:53;12.30;10.90
13375;DHT22;6756;51.354;15.754;2023-08-07T22:53:53;12.30;55.20
13375;DHT22;6756;51.354;15.754;2023-08-07T22:57:54;12.30;96.80
13375;DHT22;6756;51.354;15.754;2023-08-07T23:01:55;12.50;66.30
13375;DHT22;6756;51.354;15.754;2023-08-07T23:05:56;12.60;1.00
13375;DHT22;6756;51.354;15.754;2023-08-07T23:09:56;12.80;1.00
13375;DHT22;6756;51.354;15.754;2023-08-07T23:13:57;12.90;1.00
13375;DHT22;6756;51.354;15.754;2023-08-07T23:17:58;13.00;99.90
13375;DHT22;6756;51.354;15.754;2023-08-07T23:21:59;13.10;99.90
13375;DHT22;6756;51.354;15.754;2023-08-07T23:25:59;13.30;99.90
13375;DHT22;6756;51.354;15.754;2023-08-07T23:30:00;13.30;99.90
13375;DHT22;6756;51.354;15.754;2023-08-07T23:34:02;13.20;99.90
13375;DHT22;6756;51.354;15.754;2023-08-07T23:38:03;13.20;99.90
13375;DHT22;6756;51.354;15.754;2023-08-07T23:42:04;13.20;99.90
13375;DHT22;6756;51.354;15.754;2023-08-07T23:46:08;13.00;99.90
13375;DHT22;6756;51.354;15.754;2023-08-07T23:50:11;12.90;99.90
13375;DHT22;6756;51.354;15.754;2023-08-07T23:54:12;12.90;99.90
13375;DHT22;6756;51.354;15.754;2023-08-07T23:58:13;12.80;99.90
